sensor_id;sensor_type;location;lat;lon;timestamp;P1;durP1;ratioP1;P2;durP2;ratioP2
58083;SDS011;43882;51.550;11.858;2023-02-15T00:01:32;48.20;;;21.27;;
58083;SDS011;43882;51.550;11.858;2023-02-15T00:03:58;57.10;;;23.83;;
58083;SDS011;43882;51.550;11.858;2023-02-15T00:06:24;54.60;;;22.52;;
58083;SDS011;43882;51.550;11.858;2023-02-15T00:08:51;59.55;;;23.67;;
58083;SDS011;43882;51.550;11.858;2023-02-15T00:11:18;57.13;;;23.35;;
58083;SDS011;43882;51.550;11.858;2023-02-15T00:14:08;59.28;;;23.50;;
58083;SDS011;43882;51.550;11.858;2023-02-15T00:16:35;63.60;;;24.55;;
58083;SDS011;43882;51.550;11.858;2023-02-15T00:19:01;65.03;;;25.75;;
58083;SDS011;43882;51.550;11.858;2023-02-15T00:21:28;90.95;;;32.65;;
58083;SDS011;43882;51.550;11.858;2023-02-15T00:23:55;69.57;;;25.27;;
58083;SDS011;43882;51.550;11.858;2023-02-15T00:26:22;84.05;;;25.23;;
58083;SDS011;43882;51.550;11.858;2023-02-15T00:28:48;62.58;;;25.15;;
58083;SDS011;43882;51.550;11.858;2023-02-15T00:31:14;60.13;;;24.27;;
58083;SDS011;43882;51.550;11.858;2023-02-15T00:33:40;56.45;;;23.20;;
58083;SDS011;43882;51.550;11.858;2023-02-15T00:36:07;78.68;;;23.30;;
58083;SDS011;43882;51.550;11.858;2023-02-15T00:38:33;104.20;;;20.70;;
58083;SDS011;43882;51.550;11.858;2023-02-15T00:41:01;153.27;;;22.65;;
58083;SDS011;43882;51.550;11.858;2023-02-15T00:43:29;93.80;;;21.38;;
58083;SDS011;43882;51.550;11.858;2023-02-15T00:45:56;71.30;;;18.38;;
58083;SDS011;43882;51.550;11.858;2023-02-15T00:48:22;71.45;;;17.88;;
58083;SDS011;43882;51.550;11.858;2023-02-15T00:50:49;142.23;;;23.88;;
58083;SDS011;43882;51.550;11.858;2023-02-15T00:53:17;59.80;;;19.85;;
58083;SDS011;43882;51.550;11.858;2023-02-15T00:55:43;112.75;;;19.02;;
58083;SDS011;43882;51.550;11.858;2023-02-15T00:58:09;94.53;;;19.25;;
58083;SDS011;43882;51.550;11.858;2023-02-15T01:00:36;94.15;;;18.70;;
58083;SDS011;43882;51.550;11.858;2023-02-15T01:03:03;142.75;;;24.50;;
58083;SDS011;43882;51.550;11.858;2023-02-15T01:05:30;103.63;;;19.55;;
58083;SDS011;43882;51.550;11.858;2023-02-15T01:07:57;101.07;;;20.20;;
58083;SDS011;43882;51.550;11.858;2023-02-15T01:10:23;67.63;;;18.08;;
58083;SDS011;43882;51.550;11.858;2023-02-15T01:12:50;73.85;;;18.88;;
58083;SDS011;43882;51.550;11.858;2023-02-15T01:15:17;61.40;;;17.63;;
58083;SDS011;43882;51.550;11.858;2023-02-15T01:17:43;71.85;;;19.13;;
58083;SDS011;43882;51.550;11.858;2023-02-15T01:20:14;78.43;;;18.88;;
58083;SDS011;43882;51.550;11.858;2023-02-15T01:22:41;81.80;;;20.63;;
58083;SDS011;43882;51.550;11.858;2023-02-15T01:25:07;82.93;;;19.17;;
58083;SDS011;43882;51.550;11.858;2023-02-15T01:27:33;62.55;;;18.90;;
58083;SDS011;43882;51.550;11.858;2023-02-15T01:29:59;69.85;;;18.25;;
58083;SDS011;43882;51.550;11.858;2023-02-15T01:32:25;74.65;;;18.33;;
58083;SDS011;43882;51.550;11.858;2023-02-15T01:34:51;76.65;;;18.95;;
58083;SDS011;43882;51.550;11.858;2023-02-15T01:37:18;112.03;;;19.17;;
58083;SDS011;43882;51.550;11.858;2023-02-15T01:39:44;50.00;;;16.92;;
58083;SDS011;43882;51.550;11.858;2023-02-15T01:42:10;64.57;;;16.60;;
58083;SDS011;43882;51.550;11.858;2023-02-15T01:44:52;98.07;;;19.98;;
58083;SDS011;43882;51.550;11.858;2023-02-15T01:50:16;49.90;;;16.42;;
58083;SDS011;43882;51.550;11.858;2023-02-15T01:52:52;65.90;;;16.58;;
58083;SDS011;43882;51.550;11.858;2023-02-15T01:55:20;61.78;;;16.70;;
58083;SDS011;43882;51.550;11.858;2023-02-15T01:57:48;56.28;;;17.48;;
58083;SDS011;43882;51.550;11.858;2023-02-15T02:02:45;82.18;;;17.92;;
58083;SDS011;43882;51.550;11.858;2023-02-15T02:05:13;53.08;;;15.48;;
58083;SDS011;43882;51.550;11.858;2023-02-15T02:07:40;102.03;;;19.98;;
58083;SDS011;43882;51.550;11.858;2023-02-15T02:10:08;71.03;;;16.38;;
58083;SDS011;43882;51.550;11.858;2023-02-15T02:12:36;83.53;;;17.95;;
58083;SDS011;43882;51.550;11.858;2023-02-15T02:15:03;68.85;;;19.38;;
58083;SDS011;43882;51.550;11.858;2023-02-15T02:20:58;57.80;;;18.40;;
58083;SDS011;43882;51.550;11.858;2023-02-15T02:22:59;65.40;;;18.73;;
58083;SDS011;43882;51.550;11.858;2023-02-15T02:28:45;107.80;;;21.08;;
58083;SDS011;43882;51.550;11.858;2023-02-15T02:39:12;62.33;;;15.27;;
58083;SDS011;43882;51.550;11.858;2023-02-15T02:41:56;57.78;;;13.88;;
58083;SDS011;43882;51.550;11.858;2023-02-15T02:44:43;50.83;;;13.60;;
58083;SDS011;43882;51.550;11.858;2023-02-15T02:47:24;52.85;;;12.95;;
58083;SDS011;43882;51.550;11.858;2023-02-15T02:50:00;66.20;;;13.15;;
58083;SDS011;43882;51.550;11.858;2023-02-15T03:00:25;50.20;;;11.93;;
58083;SDS011;43882;51.550;11.858;2023-02-15T03:02:56;58.35;;;13.07;;
58083;SDS011;43882;51.550;11.858;2023-02-15T03:05:47;84.68;;;15.63;;
58083;SDS011;43882;51.550;11.858;2023-02-15T03:08:18;66.93;;;12.30;;
58083;SDS011;43882;51.550;11.858;2023-02-15T03:10:48;67.70;;;13.55;;
58083;SDS011;43882;51.550;11.858;2023-02-15T03:13:17;49.17;;;13.43;;
58083;SDS011;43882;51.550;11.858;2023-02-15T03:15:43;106.65;;;15.60;;
58083;SDS011;43882;51.550;11.858;2023-02-15T03:18:33;55.58;;;13.82;;
58083;SDS011;43882;51.550;11.858;2023-02-15T03:21:07;73.60;;;13.80;;
58083;SDS011;43882;51.550;11.858;2023-02-15T03:23:33;58.60;;;12.68;;
58083;SDS011;43882;51.550;11.858;2023-02-15T03:26:01;79.63;;;15.48;;
58083;SDS011;43882;51.550;11.858;2023-02-15T03:28:29;68.00;;;15.35;;
58083;SDS011;43882;51.550;11.858;2023-02-15T03:31:00;84.28;;;14.55;;
58083;SDS011;43882;51.550;11.858;2023-02-15T03:33:27;55.60;;;14.30;;
58083;SDS011;43882;51.550;11.858;2023-02-15T03:41:42;138.00;;;17.70;;
58083;SDS011;43882;51.550;11.858;2023-02-15T03:44:19;76.10;;;15.23;;
58083;SDS011;43882;51.550;11.858;2023-02-15T03:46:51;111.90;;;17.17;;
58083;SDS011;43882;51.550;11.858;2023-02-15T03:49:34;65.68;;;13.63;;
58083;SDS011;43882;51.550;11.858;2023-02-15T03:52:18;70.32;;;15.20;;
58083;SDS011;43882;51.550;11.858;2023-02-15T03:54:46;54.78;;;12.85;;
58083;SDS011;43882;51.550;11.858;2023-02-15T03:57:25;121.10;;;17.50;;
58083;SDS011;43882;51.550;11.858;2023-02-15T04:00:22;141.32;;;16.95;;
58083;SDS011;43882;51.550;11.858;2023-02-15T04:05:40;100.63;;;17.38;;
58083;SDS011;43882;51.550;11.858;2023-02-15T04:08:07;112.22;;;16.58;;
58083;SDS011;43882;51.550;11.858;2023-02-15T04:10:34;89.05;;;15.02;;
58083;SDS011;43882;51.550;11.858;2023-02-15T04:13:39;106.80;;;20.38;;
58083;SDS011;43882;51.550;11.858;2023-02-15T04:16:04;76.40;;;15.05;;
58083;SDS011;43882;51.550;11.858;2023-02-15T04:18:34;94.95;;;17.42;;
58083;SDS011;43882;51.550;11.858;2023-02-15T04:21:21;110.43;;;17.20;;
58083;SDS011;43882;51.550;11.858;2023-02-15T04:24:07;107.72;;;17.65;;
58083;SDS011;43882;51.550;11.858;2023-02-15T04:26:52;110.57;;;18.00;;
58083;SDS011;43882;51.550;11.858;2023-02-15T04:29:21;96.78;;;18.00;;
58083;SDS011;43882;51.550;11.858;2023-02-15T04:31:49;98.60;;;16.33;;
58083;SDS011;43882;51.550;11.858;2023-02-15T04:34:16;103.97;;;17.20;;
58083;SDS011;43882;51.550;11.858;2023-02-15T04:36:42;92.15;;;14.90;;
58083;SDS011;43882;51.550;11.858;2023-02-15T04:39:08;95.45;;;15.10;;
58083;SDS011;43882;51.550;11.858;2023-02-15T04:41:37;60.47;;;14.73;;
58083;SDS011;43882;51.550;11.858;2023-02-15T04:44:03;73.22;;;14.27;;
58083;SDS011;43882;51.550;11.858;2023-02-15T04:46:29;87.22;;;16.05;;
58083;SDS011;43882;51.550;11.858;2023-02-15T04:48:55;71.88;;;16.20;;
58083;SDS011;43882;51.550;11.858;2023-02-15T04:51:22;76.43;;;15.52;;
58083;SDS011;43882;51.550;11.858;2023-02-15T04:53:48;91.82;;;17.90;;
58083;SDS011;43882;51.550;11.858;2023-02-15T04:56:14;93.10;;;15.73;;
58083;SDS011;43882;51.550;11.858;2023-02-15T04:58:41;95.05;;;15.68;;
58083;SDS011;43882;51.550;11.858;2023-02-15T05:01:07;87.05;;;16.17;;
58083;SDS011;43882;51.550;11.858;2023-02-15T05:03:34;105.80;;;14.05;;
58083;SDS011;43882;51.550;11.858;2023-02-15T05:06:01;66.07;;;14.15;;
58083;SDS011;43882;51.550;11.858;2023-02-15T05:08:27;82.88;;;14.73;;
58083;SDS011;43882;51.550;11.858;2023-02-15T05:10:53;78.15;;;16.15;;
58083;SDS011;43882;51.550;11.858;2023-02-15T05:13:19;113.22;;;19.73;;
58083;SDS011;43882;51.550;11.858;2023-02-15T05:15:46;76.68;;;19.17;;
58083;SDS011;43882;51.550;11.858;2023-02-15T05:18:13;83.93;;;15.43;;
58083;SDS011;43882;51.550;11.858;2023-02-15T05:20:40;69.63;;;14.02;;
58083;SDS011;43882;51.550;11.858;2023-02-15T05:23:06;61.67;;;15.18;;
58083;SDS011;43882;51.550;11.858;2023-02-15T05:25:32;66.07;;;14.27;;
58083;SDS011;43882;51.550;11.858;2023-02-15T05:28:17;97.18;;;15.48;;
58083;SDS011;43882;51.550;11.858;2023-02-15T05:30:47;111.68;;;18.48;;
58083;SDS011;43882;51.550;11.858;2023-02-15T05:33:13;92.70;;;15.82;;
58083;SDS011;43882;51.550;11.858;2023-02-15T05:35:40;101.45;;;17.70;;
58083;SDS011;43882;51.550;11.858;2023-02-15T05:38:06;80.15;;;17.98;;
58083;SDS011;43882;51.550;11.858;2023-02-15T05:40:32;96.32;;;16.60;;
58083;SDS011;43882;51.550;11.858;2023-02-15T05:42:58;107.57;;;20.95;;
58083;SDS011;43882;51.550;11.858;2023-02-15T05:45:24;61.40;;;14.45;;
58083;SDS011;43882;51.550;11.858;2023-02-15T05:47:50;77.22;;;18.10;;
58083;SDS011;43882;51.550;11.858;2023-02-15T05:50:16;123.55;;;19.90;;
58083;SDS011;43882;51.550;11.858;2023-02-15T05:52:43;70.43;;;16.75;;
58083;SDS011;43882;51.550;11.858;2023-02-15T05:55:09;120.20;;;18.38;;
58083;SDS011;43882;51.550;11.858;2023-02-15T05:57:35;64.88;;;15.40;;
58083;SDS011;43882;51.550;11.858;2023-02-15T06:00:02;105.82;;;18.77;;
58083;SDS011;43882;51.550;11.858;2023-02-15T06:02:29;79.78;;;16.75;;
58083;SDS011;43882;51.550;11.858;2023-02-15T06:04:59;182.68;;;22.27;;
58083;SDS011;43882;51.550;11.858;2023-02-15T06:07:25;100.65;;;18.00;;
58083;SDS011;43882;51.550;11.858;2023-02-15T06:09:51;142.73;;;20.58;;
58083;SDS011;43882;51.550;11.858;2023-02-15T06:12:17;112.40;;;20.77;;
58083;SDS011;43882;51.550;11.858;2023-02-15T06:14:43;152.52;;;22.77;;
58083;SDS011;43882;51.550;11.858;2023-02-15T06:17:09;149.35;;;20.52;;
58083;SDS011;43882;51.550;11.858;2023-02-15T06:19:36;107.32;;;17.63;;
58083;SDS011;43882;51.550;11.858;2023-02-15T06:22:02;104.90;;;20.45;;
58083;SDS011;43882;51.550;11.858;2023-02-15T06:24:28;143.52;;;23.48;;
58083;SDS011;43882;51.550;11.858;2023-02-15T06:26:54;188.00;;;20.27;;
58083;SDS011;43882;51.550;11.858;2023-02-15T06:29:20;173.68;;;24.45;;
58083;SDS011;43882;51.550;11.858;2023-02-15T06:31:46;116.03;;;20.10;;
58083;SDS011;43882;51.550;11.858;2023-02-15T06:34:12;110.07;;;18.35;;
58083;SDS011;43882;51.550;11.858;2023-02-15T06:36:38;167.55;;;20.58;;
58083;SDS011;43882;51.550;11.858;2023-02-15T06:39:04;158.68;;;22.42;;
58083;SDS011;43882;51.550;11.858;2023-02-15T06:41:31;119.32;;;18.52;;
58083;SDS011;43882;51.550;11.858;2023-02-15T06:43:57;126.35;;;20.25;;
58083;SDS011;43882;51.550;11.858;2023-02-15T06:46:23;185.40;;;21.90;;
58083;SDS011;43882;51.550;11.858;2023-02-15T06:48:49;116.28;;;20.15;;
58083;SDS011;43882;51.550;11.858;2023-02-15T06:51:15;105.45;;;18.75;;
58083;SDS011;43882;51.550;11.858;2023-02-15T06:53:41;106.82;;;19.13;;
58083;SDS011;43882;51.550;11.858;2023-02-15T06:56:08;139.77;;;25.52;;
58083;SDS011;43882;51.550;11.858;2023-02-15T06:58:38;146.35;;;20.45;;
58083;SDS011;43882;51.550;11.858;2023-02-15T07:01:05;129.13;;;21.67;;
58083;SDS011;43882;51.550;11.858;2023-02-15T07:03:31;201.70;;;24.10;;
58083;SDS011;43882;51.550;11.858;2023-02-15T07:05:58;109.40;;;19.95;;
58083;SDS011;43882;51.550;11.858;2023-02-15T07:08:27;190.07;;;31.27;;
58083;SDS011;43882;51.550;11.858;2023-02-15T07:10:53;124.53;;;18.92;;
58083;SDS011;43882;51.550;11.858;2023-02-15T07:13:40;115.53;;;19.60;;
58083;SDS011;43882;51.550;11.858;2023-02-15T07:16:07;106.38;;;19.17;;
58083;SDS011;43882;51.550;11.858;2023-02-15T07:18:34;132.63;;;20.52;;
58083;SDS011;43882;51.550;11.858;2023-02-15T07:21:00;104.43;;;18.83;;
58083;SDS011;43882;51.550;11.858;2023-02-15T07:23:27;119.03;;;18.65;;
58083;SDS011;43882;51.550;11.858;2023-02-15T07:25:57;111.85;;;22.20;;
58083;SDS011;43882;51.550;11.858;2023-02-15T07:28:26;105.38;;;20.55;;
58083;SDS011;43882;51.550;11.858;2023-02-15T07:30:53;111.30;;;20.13;;
58083;SDS011;43882;51.550;11.858;2023-02-15T07:33:19;128.43;;;21.45;;
58083;SDS011;43882;51.550;11.858;2023-02-15T07:35:48;134.75;;;20.45;;
58083;SDS011;43882;51.550;11.858;2023-02-15T07:38:16;152.23;;;23.10;;
58083;SDS011;43882;51.550;11.858;2023-02-15T07:40:42;151.02;;;22.13;;
58083;SDS011;43882;51.550;11.858;2023-02-15T07:43:08;118.68;;;20.98;;
58083;SDS011;43882;51.550;11.858;2023-02-15T07:45:34;114.85;;;22.13;;
58083;SDS011;43882;51.550;11.858;2023-02-15T07:48:01;178.73;;;31.38;;
58083;SDS011;43882;51.550;11.858;2023-02-15T07:50:28;123.13;;;21.63;;
58083;SDS011;43882;51.550;11.858;2023-02-15T07:52:54;155.48;;;24.02;;
58083;SDS011;43882;51.550;11.858;2023-02-15T07:55:20;207.88;;;29.83;;
58083;SDS011;43882;51.550;11.858;2023-02-15T07:57:47;179.18;;;27.02;;
58083;SDS011;43882;51.550;11.858;2023-02-15T08:00:15;197.82;;;26.25;;
58083;SDS011;43882;51.550;11.858;2023-02-15T08:02:42;132.77;;;24.83;;
58083;SDS011;43882;51.550;11.858;2023-02-15T08:05:34;115.90;;;26.30;;
58083;SDS011;43882;51.550;11.858;2023-02-15T08:08:00;215.30;;;31.52;;
58083;SDS011;43882;51.550;11.858;2023-02-15T08:10:26;178.00;;;32.42;;
58083;SDS011;43882;51.550;11.858;2023-02-15T08:13:11;180.10;;;29.08;;
58083;SDS011;43882;51.550;11.858;2023-02-15T08:15:37;129.77;;;25.10;;
58083;SDS011;43882;51.550;11.858;2023-02-15T08:18:03;99.30;;;22.60;;
58083;SDS011;43882;51.550;11.858;2023-02-15T08:20:29;82.78;;;20.02;;
58083;SDS011;43882;51.550;11.858;2023-02-15T08:22:55;64.97;;;19.00;;
58083;SDS011;43882;51.550;11.858;2023-02-15T08:25:21;86.20;;;22.50;;
58083;SDS011;43882;51.550;11.858;2023-02-15T08:27:48;57.42;;;17.45;;
58083;SDS011;43882;51.550;11.858;2023-02-15T08:30:15;77.93;;;19.70;;
58083;SDS011;43882;51.550;11.858;2023-02-15T08:32:41;87.00;;;19.40;;
58083;SDS011;43882;51.550;11.858;2023-02-15T08:35:07;57.28;;;17.27;;
58083;SDS011;43882;51.550;11.858;2023-02-15T08:37:33;57.05;;;16.00;;
58083;SDS011;43882;51.550;11.858;2023-02-15T08:39:59;45.42;;;17.25;;
58083;SDS011;43882;51.550;11.858;2023-02-15T08:42:25;43.80;;;16.83;;
58083;SDS011;43882;51.550;11.858;2023-02-15T08:44:51;44.03;;;16.77;;
58083;SDS011;43882;51.550;11.858;2023-02-15T08:47:17;41.78;;;16.30;;
58083;SDS011;43882;51.550;11.858;2023-02-15T08:49:43;41.22;;;17.40;;
58083;SDS011;43882;51.550;11.858;2023-02-15T08:52:09;40.40;;;17.63;;
58083;SDS011;43882;51.550;11.858;2023-02-15T08:54:35;37.83;;;14.98;;
58083;SDS011;43882;51.550;11.858;2023-02-15T08:57:01;32.67;;;14.18;;
58083;SDS011;43882;51.550;11.858;2023-02-15T08:59:28;31.38;;;13.35;;
58083;SDS011;43882;51.550;11.858;2023-02-15T09:01:54;31.27;;;13.05;;
58083;SDS011;43882;51.550;11.858;2023-02-15T09:04:20;32.85;;;13.10;;
58083;SDS011;43882;51.550;11.858;2023-02-15T09:06:47;27.40;;;10.90;;
58083;SDS011;43882;51.550;11.858;2023-02-15T09:09:15;28.23;;;12.63;;
58083;SDS011;43882;51.550;11.858;2023-02-15T09:11:42;24.52;;;10.50;;
58083;SDS011;43882;51.550;11.858;2023-02-15T09:14:13;25.42;;;10.80;;
58083;SDS011;43882;51.550;11.858;2023-02-15T09:16:45;24.90;;;10.82;;
58083;SDS011;43882;51.550;11.858;2023-02-15T09:19:13;25.42;;;10.25;;
58083;SDS011;43882;51.550;11.858;2023-02-15T09:21:40;28.95;;;11.38;;
58083;SDS011;43882;51.550;11.858;2023-02-15T09:24:07;27.98;;;11.75;;
58083;SDS011;43882;51.550;11.858;2023-02-15T09:26:35;26.73;;;11.23;;
58083;SDS011;43882;51.550;11.858;2023-02-15T09:29:03;23.02;;;9.65;;
58083;SDS011;43882;51.550;11.858;2023-02-15T09:31:30;22.95;;;9.88;;
58083;SDS011;43882;51.550;11.858;2023-02-15T09:33:59;24.13;;;10.40;;
58083;SDS011;43882;51.550;11.858;2023-02-15T09:36:27;22.50;;;9.30;;
58083;SDS011;43882;51.550;11.858;2023-02-15T09:39:06;23.17;;;9.40;;
58083;SDS011;43882;51.550;11.858;2023-02-15T09:44:23;22.98;;;9.48;;
58083;SDS011;43882;51.550;11.858;2023-02-15T10:04:25;23.27;;;9.32;;
58083;SDS011;43882;51.550;11.858;2023-02-15T10:09:27;20.30;;;8.87;;
58083;SDS011;43882;51.550;11.858;2023-02-15T10:25:18;22.05;;;8.52;;
58083;SDS011;43882;51.550;11.858;2023-02-15T10:27:54;19.85;;;7.43;;
58083;SDS011;43882;51.550;11.858;2023-02-15T10:30:31;19.80;;;7.60;;
58083;SDS011;43882;51.550;11.858;2023-02-15T10:33:30;19.63;;;8.07;;
58083;SDS011;43882;51.550;11.858;2023-02-15T10:36:05;19.70;;;7.78;;
58083;SDS011;43882;51.550;11.858;2023-02-15T10:39:01;20.35;;;7.72;;
58083;SDS011;43882;51.550;11.858;2023-02-15T10:44:40;19.80;;;8.18;;
58083;SDS011;43882;51.550;11.858;2023-02-15T10:53:02;21.50;;;9.10;;
58083;SDS011;43882;51.550;11.858;2023-02-15T11:06:42;20.40;;;7.45;;
58083;SDS011;43882;51.550;11.858;2023-02-15T11:09:16;19.90;;;7.80;;
58083;SDS011;43882;51.550;11.858;2023-02-15T11:11:44;20.55;;;8.40;;
58083;SDS011;43882;51.550;11.858;2023-02-15T11:14:17;22.75;;;7.82;;
58083;SDS011;43882;51.550;11.858;2023-02-15T11:16:53;20.92;;;8.10;;
58083;SDS011;43882;51.550;11.858;2023-02-15T11:19:34;20.55;;;8.20;;
58083;SDS011;43882;51.550;11.858;2023-02-15T11:22:04;21.98;;;8.23;;
58083;SDS011;43882;51.550;11.858;2023-02-15T11:24:31;20.52;;;8.00;;
58083;SDS011;43882;51.550;11.858;2023-02-15T11:27:20;21.23;;;8.65;;
58083;SDS011;43882;51.550;11.858;2023-02-15T11:29:58;20.45;;;7.28;;
58083;SDS011;43882;51.550;11.858;2023-02-15T11:32:33;20.50;;;8.10;;
58083;SDS011;43882;51.550;11.858;2023-02-15T11:37:31;21.42;;;8.13;;
58083;SDS011;43882;51.550;11.858;2023-02-15T11:40:01;20.17;;;8.38;;
58083;SDS011;43882;51.550;11.858;2023-02-15T11:42:28;22.30;;;8.30;;
58083;SDS011;43882;51.550;11.858;2023-02-15T11:47:27;28.77;;;12.65;;
58083;SDS011;43882;51.550;11.858;2023-02-15T11:49:53;27.33;;;12.05;;
58083;SDS011;43882;51.550;11.858;2023-02-15T11:52:19;19.65;;;7.80;;
58083;SDS011;43882;51.550;11.858;2023-02-15T11:54:46;20.40;;;8.88;;
58083;SDS011;43882;51.550;11.858;2023-02-15T12:02:39;20.55;;;8.43;;
58083;SDS011;43882;51.550;11.858;2023-02-15T12:05:11;20.58;;;8.48;;
58083;SDS011;43882;51.550;11.858;2023-02-15T12:07:45;21.42;;;8.60;;
58083;SDS011;43882;51.550;11.858;2023-02-15T12:12:39;20.75;;;8.88;;
58083;SDS011;43882;51.550;11.858;2023-02-15T12:15:06;19.23;;;8.05;;
58083;SDS011;43882;51.550;11.858;2023-02-15T12:17:40;21.77;;;8.68;;
58083;SDS011;43882;51.550;11.858;2023-02-15T12:22:53;20.90;;;8.05;;
58083;SDS011;43882;51.550;11.858;2023-02-15T12:25:33;23.58;;;9.45;;
58083;SDS011;43882;51.550;11.858;2023-02-15T12:28:02;21.30;;;8.35;;
58083;SDS011;43882;51.550;11.858;2023-02-15T12:30:34;19.23;;;8.40;;
58083;SDS011;43882;51.550;11.858;2023-02-15T12:35:39;20.05;;;8.68;;
58083;SDS011;43882;51.550;11.858;2023-02-15T12:40:35;23.55;;;9.20;;
58083;SDS011;43882;51.550;11.858;2023-02-15T12:43:02;19.90;;;7.93;;
58083;SDS011;43882;51.550;11.858;2023-02-15T12:45:34;20.53;;;7.73;;
58083;SDS011;43882;51.550;11.858;2023-02-15T12:48:17;20.15;;;7.47;;
58083;SDS011;43882;51.550;11.858;2023-02-15T12:50:48;19.52;;;7.55;;
58083;SDS011;43882;51.550;11.858;2023-02-15T12:53:16;20.27;;;8.02;;
58083;SDS011;43882;51.550;11.858;2023-02-15T12:55:57;19.45;;;7.82;;
58083;SDS011;43882;51.550;11.858;2023-02-15T12:58:25;20.25;;;8.35;;
58083;SDS011;43882;51.550;11.858;2023-02-15T13:01:09;20.02;;;7.95;;
58083;SDS011;43882;51.550;11.858;2023-02-15T13:03:56;20.05;;;7.90;;
58083;SDS011;43882;51.550;11.858;2023-02-15T13:06:24;20.17;;;7.88;;
58083;SDS011;43882;51.550;11.858;2023-02-15T13:08:51;19.58;;;7.78;;
58083;SDS011;43882;51.550;11.858;2023-02-15T13:11:39;19.20;;;7.90;;
58083;SDS011;43882;51.550;11.858;2023-02-15T13:14:51;20.35;;;8.05;;
58083;SDS011;43882;51.550;11.858;2023-02-15T13:16:58;19.58;;;7.50;;
58083;SDS011;43882;51.550;11.858;2023-02-15T13:22:10;19.53;;;7.87;;
58083;SDS011;43882;51.550;11.858;2023-02-15T13:24:50;18.92;;;7.88;;
58083;SDS011;43882;51.550;11.858;2023-02-15T13:27:22;18.05;;;6.93;;
58083;SDS011;43882;51.550;11.858;2023-02-15T13:29:56;19.42;;;7.50;;
58083;SDS011;43882;51.550;11.858;2023-02-15T13:35:01;18.13;;;7.15;;
58083;SDS011;43882;51.550;11.858;2023-02-15T13:40:33;18.15;;;7.07;;
58083;SDS011;43882;51.550;11.858;2023-02-15T13:43:29;17.35;;;6.60;;
58083;SDS011;43882;51.550;11.858;2023-02-15T13:46:17;19.73;;;7.07;;
58083;SDS011;43882;51.550;11.858;2023-02-15T13:49:04;19.35;;;6.55;;
58083;SDS011;43882;51.550;11.858;2023-02-15T13:52:08;18.05;;;6.53;;
58083;SDS011;43882;51.550;11.858;2023-02-15T13:55:02;17.77;;;6.32;;
58083;SDS011;43882;51.550;11.858;2023-02-15T14:03:00;16.58;;;6.20;;
58083;SDS011;43882;51.550;11.858;2023-02-15T14:10:43;17.10;;;5.88;;
58083;SDS011;43882;51.550;11.858;2023-02-15T14:18:40;16.45;;;6.07;;
58083;SDS011;43882;51.550;11.858;2023-02-15T14:27:04;16.88;;;6.28;;
58083;SDS011;43882;51.550;11.858;2023-02-15T14:32:25;18.17;;;7.20;;
58083;SDS011;43882;51.550;11.858;2023-02-15T14:35:04;18.88;;;6.72;;
58083;SDS011;43882;51.550;11.858;2023-02-15T14:40:38;19.73;;;7.28;;
58083;SDS011;43882;51.550;11.858;2023-02-15T14:43:30;18.67;;;7.25;;
58083;SDS011;43882;51.550;11.858;2023-02-15T14:49:04;16.80;;;6.53;;
58083;SDS011;43882;51.550;11.858;2023-02-15T14:54:12;20.40;;;7.70;;
58083;SDS011;43882;51.550;11.858;2023-02-15T14:59:38;19.83;;;7.28;;
58083;SDS011;43882;51.550;11.858;2023-02-15T15:02:18;20.30;;;7.53;;
58083;SDS011;43882;51.550;11.858;2023-02-15T15:12:52;20.63;;;8.38;;
58083;SDS011;43882;51.550;11.858;2023-02-15T15:17:56;20.27;;;7.90;;
58083;SDS011;43882;51.550;11.858;2023-02-15T15:25:49;19.23;;;7.75;;
58083;SDS011;43882;51.550;11.858;2023-02-15T15:37:01;18.83;;;7.72;;
58083;SDS011;43882;51.550;11.858;2023-02-15T15:39:41;21.13;;;8.32;;
58083;SDS011;43882;51.550;11.858;2023-02-15T15:48:17;20.63;;;7.45;;
58083;SDS011;43882;51.550;11.858;2023-02-15T15:53:50;20.30;;;7.85;;
58083;SDS011;43882;51.550;11.858;2023-02-15T15:56:19;22.10;;;8.68;;
58083;SDS011;43882;51.550;11.858;2023-02-15T15:58:51;20.45;;;8.00;;
58083;SDS011;43882;51.550;11.858;2023-02-15T16:01:26;21.77;;;8.40;;
58083;SDS011;43882;51.550;11.858;2023-02-15T16:03:55;20.93;;;7.43;;
58083;SDS011;43882;51.550;11.858;2023-02-15T16:06:35;20.55;;;8.75;;
58083;SDS011;43882;51.550;11.858;2023-02-15T16:09:12;20.65;;;8.57;;
58083;SDS011;43882;51.550;11.858;2023-02-15T16:11:43;22.35;;;8.93;;
58083;SDS011;43882;51.550;11.858;2023-02-15T16:14:16;23.70;;;8.70;;
58083;SDS011;43882;51.550;11.858;2023-02-15T16:16:57;22.25;;;8.60;;
58083;SDS011;43882;51.550;11.858;2023-02-15T16:19:29;21.95;;;7.63;;
58083;SDS011;43882;51.550;11.858;2023-02-15T16:21:58;22.40;;;8.02;;
58083;SDS011;43882;51.550;11.858;2023-02-15T16:24:51;21.00;;;7.90;;
58083;SDS011;43882;51.550;11.858;2023-02-15T16:27:15;22.58;;;8.10;;
58083;SDS011;43882;51.550;11.858;2023-02-15T16:29:42;21.77;;;9.00;;
58083;SDS011;43882;51.550;11.858;2023-02-15T16:32:16;21.98;;;8.85;;
58083;SDS011;43882;51.550;11.858;2023-02-15T16:34:55;22.92;;;9.27;;
58083;SDS011;43882;51.550;11.858;2023-02-15T16:37:24;21.40;;;8.27;;
58083;SDS011;43882;51.550;11.858;2023-02-15T16:39:52;24.98;;;9.65;;
58083;SDS011;43882;51.550;11.858;2023-02-15T16:42:19;22.85;;;9.38;;
58083;SDS011;43882;51.550;11.858;2023-02-15T16:44:45;24.08;;;10.18;;
58083;SDS011;43882;51.550;11.858;2023-02-15T16:47:28;25.27;;;11.02;;
58083;SDS011;43882;51.550;11.858;2023-02-15T16:49:57;24.95;;;9.93;;
58083;SDS011;43882;51.550;11.858;2023-02-15T16:52:24;22.90;;;8.60;;
58083;SDS011;43882;51.550;11.858;2023-02-15T16:54:53;22.55;;;8.90;;
58083;SDS011;43882;51.550;11.858;2023-02-15T16:57:23;21.77;;;8.20;;
58083;SDS011;43882;51.550;11.858;2023-02-15T16:59:53;23.30;;;9.73;;
58083;SDS011;43882;51.550;11.858;2023-02-15T17:02:30;29.60;;;13.35;;
58083;SDS011;43882;51.550;11.858;2023-02-15T17:05:02;28.67;;;13.90;;
58083;SDS011;43882;51.550;11.858;2023-02-15T17:07:39;27.90;;;13.15;;
58083;SDS011;43882;51.550;11.858;2023-02-15T17:10:25;29.45;;;12.15;;
58083;SDS011;43882;51.550;11.858;2023-02-15T17:12:53;27.52;;;10.93;;
58083;SDS011;43882;51.550;11.858;2023-02-15T17:18:01;27.85;;;11.45;;
58083;SDS011;43882;51.550;11.858;2023-02-15T17:20:43;38.05;;;17.13;;
58083;SDS011;43882;51.550;11.858;2023-02-15T17:23:18;53.63;;;19.88;;
58083;SDS011;43882;51.550;11.858;2023-02-15T17:25:54;30.08;;;10.93;;
58083;SDS011;43882;51.550;11.858;2023-02-15T17:28:22;25.83;;;10.00;;
58083;SDS011;43882;51.550;11.858;2023-02-15T17:30:50;24.77;;;10.90;;
58083;SDS011;43882;51.550;11.858;2023-02-15T17:39:01;24.10;;;9.48;;
58083;SDS011;43882;51.550;11.858;2023-02-15T17:41:33;22.83;;;8.30;;
58083;SDS011;43882;51.550;11.858;2023-02-15T17:44:02;22.73;;;8.20;;
58083;SDS011;43882;51.550;11.858;2023-02-15T17:46:29;21.33;;;8.85;;
58083;SDS011;43882;51.550;11.858;2023-02-15T17:48:59;22.25;;;8.50;;
58083;SDS011;43882;51.550;11.858;2023-02-15T17:51:26;21.70;;;8.55;;